createdAt,value
2023-04-10T00:00:36.934Z,1019.92
2023-04-10T00:01:36.955Z,1019.88
2023-04-10T00:02:37.043Z,1019.92
2023-04-10T00:03:36.967Z,1019.86
2023-04-10T00:04:36.934Z,1019.90
2023-04-10T00:05:36.897Z,1019.95
2023-04-10T00:06:36.854Z,1019.91
2023-04-10T00:07:36.869Z,1019.91
2023-04-10T00:08:36.845Z,1019.85
2023-04-10T00:09:36.808Z,1019.90
2023-04-10T00:10:36.763Z,1019.94
2023-04-10T00:11:36.787Z,1019.89
2023-04-10T00:12:36.792Z,1019.90
2023-04-10T00:13:36.740Z,1019.81
2023-04-10T00:14:36.702Z,1019.84
2023-04-10T00:15:36.746Z,1019.81
2023-04-10T00:16:36.734Z,1019.79
2023-04-10T00:17:36.713Z,1019.71
2023-04-10T00:18:36.657Z,1019.71
2023-04-10T00:19:36.673Z,1019.77
2023-04-10T00:20:36.670Z,1019.69
2023-04-10T00:21:36.679Z,1019.70
2023-04-10T00:22:36.601Z,1019.67
2023-04-10T00:23:36.596Z,1019.67
2023-04-10T00:24:36.592Z,1019.62
2023-04-10T00:25:36.567Z,1019.65
2023-04-10T00:26:36.625Z,1019.63
2023-04-10T00:27:36.577Z,1019.69
2023-04-10T00:28:36.541Z,1019.73
2023-04-10T00:29:36.545Z,1019.66
2023-04-10T00:30:36.521Z,1019.65
2023-04-10T00:31:36.525Z,1019.62
2023-04-10T00:32:36.519Z,1019.67
2023-04-10T00:33:36.495Z,1019.67
2023-04-10T00:34:36.460Z,1019.60
2023-04-10T00:35:36.484Z,1019.63
2023-04-10T00:36:36.438Z,1019.64
2023-04-10T00:37:44.017Z,1019.62
2023-04-10T00:38:37.126Z,1019.61
2023-04-10T00:39:38.099Z,1019.59
2023-04-10T00:40:37.100Z,1019.56
2023-04-10T00:41:36.419Z,1019.55
2023-04-10T00:42:36.333Z,1019.59
2023-04-10T00:43:36.360Z,1019.61
2023-04-10T00:44:36.346Z,1019.51
2023-04-10T00:45:36.386Z,1019.59
2023-04-10T00:46:36.405Z,1019.54
2023-04-10T00:47:36.359Z,1019.53
2023-04-10T00:48:36.292Z,1019.46
2023-04-10T00:49:36.257Z,1019.52
2023-04-10T00:50:36.247Z,1019.48
2023-04-10T00:51:36.235Z,1019.48
2023-04-10T00:52:36.252Z,1019.49
2023-04-10T00:53:36.218Z,1019.46
2023-04-10T00:54:36.175Z,1019.46
2023-04-10T00:55:36.202Z,1019.46
2023-04-10T00:56:36.180Z,1019.43
2023-04-10T00:57:36.148Z,1019.40
2023-04-10T00:58:36.160Z,1019.40
2023-04-10T00:59:36.194Z,1019.46
2023-04-10T01:00:36.099Z,1019.40
2023-04-10T01:01:36.279Z,1019.42
2023-04-10T01:02:36.165Z,1019.39
2023-04-10T01:03:36.276Z,1019.34
2023-04-10T01:04:36.105Z,1019.37
2023-04-10T01:05:36.037Z,1019.31
2023-04-10T01:06:36.068Z,1019.42
2023-04-10T01:07:36.045Z,1019.28
2023-04-10T01:08:36.057Z,1019.31
2023-04-10T01:09:36.022Z,1019.35
2023-04-10T01:10:36.019Z,1019.32
2023-04-10T01:11:35.965Z,1019.32
2023-04-10T01:12:35.956Z,1019.31
2023-04-10T01:13:35.965Z,1019.32
2023-04-10T01:14:35.965Z,1019.31
2023-04-10T01:15:35.930Z,1019.35
2023-04-10T01:16:35.951Z,1019.29
2023-04-10T01:17:35.968Z,1019.37
2023-04-10T01:18:35.880Z,1019.27
2023-04-10T01:19:35.857Z,1019.36
2023-04-10T01:20:35.876Z,1019.28
2023-04-10T01:21:35.868Z,1019.29
2023-04-10T01:22:35.896Z,1019.25
2023-04-10T01:23:35.829Z,1019.17
2023-04-10T01:24:35.835Z,1019.24
2023-04-10T01:25:35.778Z,1019.11
2023-04-10T01:26:35.812Z,1019.12
2023-04-10T01:27:35.767Z,1019.11
2023-04-10T01:28:35.776Z,1019.02
2023-04-10T01:29:35.723Z,1019.04
2023-04-10T01:30:35.787Z,1019.00
2023-04-10T01:31:35.745Z,1019.03
2023-04-10T01:32:35.700Z,1019.01
2023-04-10T01:33:35.690Z,1018.98
2023-04-10T01:34:35.714Z,1018.93
2023-04-10T01:35:35.690Z,1018.97
2023-04-10T01:36:35.670Z,1018.95
2023-04-10T01:37:35.663Z,1018.95
2023-04-10T01:38:35.616Z,1018.92
2023-04-10T01:39:35.613Z,1018.92
2023-04-10T01:40:35.614Z,1018.88
2023-04-10T01:41:35.588Z,1018.84
2023-04-10T01:42:35.558Z,1018.91
2023-04-10T01:43:35.575Z,1018.91
2023-04-10T01:44:35.527Z,1018.91
2023-04-10T01:45:35.566Z,1018.87
2023-04-10T01:46:35.624Z,1018.90
2023-04-10T01:47:35.590Z,1018.89
2023-04-10T01:48:35.470Z,1018.88
2023-04-10T01:49:35.474Z,1018.85
2023-04-10T01:50:35.501Z,1018.89
2023-04-10T01:51:35.490Z,1018.86
2023-04-10T01:52:35.426Z,1018.82
2023-04-10T01:53:35.418Z,1018.78
2023-04-10T01:54:35.385Z,1018.81
2023-04-10T01:55:35.389Z,1018.76
2023-04-10T01:56:35.371Z,1018.78
2023-04-10T01:57:35.411Z,1018.77
2023-04-10T01:58:35.330Z,1018.71
2023-04-10T01:59:35.341Z,1018.73
2023-04-10T02:00:35.311Z,1018.75
2023-04-10T02:01:35.394Z,1018.72
2023-04-10T02:02:35.509Z,1018.69
2023-04-10T02:03:35.417Z,1018.68
2023-04-10T02:04:35.423Z,1018.69
2023-04-10T02:05:35.254Z,1018.71
2023-04-10T02:06:35.293Z,1018.66
2023-04-10T02:07:35.275Z,1018.72
2023-04-10T02:08:35.233Z,1018.67
2023-04-10T02:09:35.217Z,1018.64
2023-04-10T02:10:35.177Z,1018.61
2023-04-10T02:11:35.220Z,1018.59
2023-04-10T02:12:35.157Z,1018.57
2023-04-10T02:13:35.171Z,1018.53
2023-04-10T02:14:35.143Z,1018.57
2023-04-10T02:15:35.241Z,1018.61
2023-04-10T02:16:35.256Z,1018.56
2023-04-10T02:17:35.140Z,1018.56
2023-04-10T02:18:35.105Z,1018.58
2023-04-10T02:19:35.090Z,1018.59
2023-04-10T02:20:35.084Z,1018.62
2023-04-10T02:21:35.109Z,1018.58
2023-04-10T02:22:35.091Z,1018.57
2023-04-10T02:23:35.042Z,1018.60
2023-04-10T02:24:35.013Z,1018.59
2023-04-10T02:25:35.030Z,1018.55
2023-04-10T02:26:34.963Z,1018.57
2023-04-10T02:27:34.984Z,1018.54
2023-04-10T02:28:34.952Z,1018.54
2023-04-10T02:29:34.947Z,1018.58
2023-04-10T02:30:34.917Z,1018.50
2023-04-10T02:31:35.014Z,1018.54
2023-04-10T02:32:34.999Z,1018.59
2023-04-10T02:33:34.884Z,1018.54
2023-04-10T02:34:34.924Z,1018.52
2023-04-10T02:35:34.971Z,1018.55
2023-04-10T02:36:34.861Z,1018.54
2023-04-10T02:37:34.856Z,1018.61
2023-04-10T02:38:34.833Z,1018.57
2023-04-10T02:39:34.827Z,1018.63
2023-04-10T02:40:34.845Z,1018.70
2023-04-10T02:41:34.790Z,1018.67
2023-04-10T02:42:34.808Z,1018.74
2023-04-10T02:43:34.763Z,1018.72
2023-04-10T02:44:34.772Z,1018.58
2023-04-10T02:45:34.751Z,1018.66
2023-04-10T02:46:34.749Z,1018.61
2023-04-10T02:47:34.760Z,1018.59
2023-04-10T02:48:34.713Z,1018.65
2023-04-10T02:49:34.682Z,1018.50
2023-04-10T02:50:34.691Z,1018.59
2023-04-10T02:51:34.673Z,1018.56
2023-04-10T02:52:34.675Z,1018.53
2023-04-10T02:53:34.640Z,1018.56
2023-04-10T02:54:34.627Z,1018.57
2023-04-10T02:55:34.631Z,1018.54
2023-04-10T02:56:34.590Z,1018.56
2023-04-10T02:57:34.573Z,1018.52
2023-04-10T02:58:34.572Z,1018.51
2023-04-10T02:59:34.561Z,1018.45
2023-04-10T03:00:34.567Z,1018.43
2023-04-10T03:01:34.679Z,1018.45
2023-04-10T03:02:34.635Z,1018.41
2023-04-10T03:03:34.640Z,1018.44
2023-04-10T03:04:34.549Z,1018.39
2023-04-10T03:05:34.511Z,1018.37
2023-04-10T03:06:34.466Z,1018.38
2023-04-10T03:07:34.482Z,1018.37
2023-04-10T03:08:34.447Z,1018.36
2023-04-10T03:09:34.466Z,1018.37
2023-04-10T03:10:34.401Z,1018.43
2023-04-10T03:11:34.415Z,1018.41
2023-04-10T03:12:34.444Z,1018.39
2023-04-10T03:13:34.389Z,1018.38
2023-04-10T03:14:34.383Z,1018.39
2023-04-10T03:15:34.444Z,1018.37
2023-04-10T03:16:34.488Z,1018.41
2023-04-10T03:17:34.331Z,1018.35
2023-04-10T03:18:34.352Z,1018.39
2023-04-10T03:19:34.291Z,1018.35
2023-04-10T03:20:34.256Z,1018.32
2023-04-10T03:21:34.313Z,1018.34
2023-04-10T03:22:34.271Z,1018.24
2023-04-10T03:23:34.247Z,1018.26
2023-04-10T03:24:34.232Z,1018.26
2023-04-10T03:25:34.237Z,1018.29
2023-04-10T03:26:34.246Z,1018.23
2023-04-10T03:27:34.177Z,1018.20
2023-04-10T03:28:34.197Z,1018.20
2023-04-10T03:29:34.167Z,1018.17
2023-04-10T03:30:34.168Z,1018.14
2023-04-10T03:31:34.233Z,1018.13
2023-04-10T03:32:34.201Z,1018.10
2023-04-10T03:33:34.181Z,1018.08
2023-04-10T03:34:34.077Z,1018.06
2023-04-10T03:35:34.148Z,1018.05
2023-04-10T03:36:34.088Z,1018.08
2023-04-10T03:37:34.091Z,1018.07
2023-04-10T03:38:34.053Z,1018.05
2023-04-10T03:39:34.082Z,1018.02
2023-04-10T03:40:34.041Z,1018.02
2023-04-10T03:41:34.052Z,1018.05
2023-04-10T03:42:33.983Z,1017.93
2023-04-10T03:43:33.968Z,1017.99
2023-04-10T03:44:33.980Z,1017.94
2023-04-10T03:45:33.973Z,1017.98
2023-04-10T03:46:33.962Z,1017.94
2023-04-10T03:47:33.998Z,1017.94
2023-04-10T03:48:33.926Z,1017.91
2023-04-10T03:49:33.894Z,1017.96
2023-04-10T03:50:33.901Z,1017.88
2023-04-10T03:51:33.914Z,1017.90
2023-04-10T03:52:33.897Z,1017.90
2023-04-10T03:53:35.064Z,1017.85
2023-04-10T03:54:33.848Z,1017.90
2023-04-10T03:55:33.828Z,1017.89
2023-04-10T03:56:33.824Z,1017.84
2023-04-10T03:57:33.801Z,1017.86
2023-04-10T03:58:33.767Z,1017.83
2023-04-10T03:59:38.694Z,1017.80
2023-04-10T04:00:34.751Z,1017.86
2023-04-10T04:01:33.762Z,1017.84
2023-04-10T04:02:33.951Z,1017.82
2023-04-10T04:03:33.891Z,1017.77
2023-04-10T04:04:33.843Z,1017.77
2023-04-10T04:05:33.700Z,1017.84
2023-04-10T04:06:33.682Z,1017.87
2023-04-10T04:07:33.654Z,1017.78
2023-04-10T04:08:33.683Z,1017.77
2023-04-10T04:09:33.665Z,1017.77
2023-04-10T04:10:33.672Z,1017.81
2023-04-10T04:11:33.614Z,1017.81
2023-04-10T04:12:33.640Z,1017.82
2023-04-10T04:13:33.598Z,1017.81
2023-04-10T04:14:33.580Z,1017.86
2023-04-10T04:15:33.544Z,1017.77
2023-04-10T04:16:33.628Z,1017.84
2023-04-10T04:17:33.574Z,1017.84
2023-04-10T04:18:33.526Z,1017.81
2023-04-10T04:19:33.512Z,1017.84
2023-04-10T04:20:33.486Z,1017.79
2023-04-10T04:21:33.509Z,1017.84
2023-04-10T04:22:33.498Z,1017.84
2023-04-10T04:23:33.444Z,1017.83
2023-04-10T04:24:33.460Z,1017.81
2023-04-10T04:25:33.457Z,1017.89
2023-04-10T04:26:33.438Z,1017.82
2023-04-10T04:27:33.415Z,1017.81
2023-04-10T04:28:33.407Z,1017.81
2023-04-10T04:29:33.379Z,1017.84
2023-04-10T04:30:33.382Z,1017.77
2023-04-10T04:31:33.388Z,1017.77
2023-04-10T04:32:33.405Z,1017.84
2023-04-10T04:33:33.379Z,1017.77
2023-04-10T04:34:33.307Z,1017.83
2023-04-10T04:35:33.395Z,1017.77
2023-04-10T04:36:33.347Z,1017.80
2023-04-10T04:37:33.317Z,1017.86
2023-04-10T04:38:33.293Z,1017.87
2023-04-10T04:39:33.243Z,1017.74
2023-04-10T04:40:33.263Z,1017.76
2023-04-10T04:41:33.250Z,1017.78
2023-04-10T04:42:33.236Z,1017.72
2023-04-10T04:43:33.216Z,1017.76
2023-04-10T04:44:33.212Z,1017.71
2023-04-10T04:45:33.169Z,1017.70
2023-04-10T04:46:33.185Z,1017.83
2023-04-10T04:47:33.151Z,1017.68
2023-04-10T04:48:33.161Z,1017.74
2023-04-10T04:49:33.125Z,1017.76
2023-04-10T04:50:33.143Z,1017.74
2023-04-10T04:51:33.113Z,1017.76
2023-04-10T04:52:33.117Z,1017.80
2023-04-10T04:53:33.120Z,1017.74
2023-04-10T04:54:33.097Z,1017.72
2023-04-10T04:55:33.040Z,1017.72
2023-04-10T04:56:33.067Z,1017.76
2023-04-10T04:57:33.050Z,1017.76
2023-04-10T04:58:33.010Z,1017.76
2023-04-10T04:59:32.979Z,1017.77
2023-04-10T05:00:32.987Z,1017.78
2023-04-10T05:01:33.017Z,1017.75
2023-04-10T05:02:33.107Z,1017.75
2023-04-10T05:03:33.273Z,1017.79
2023-04-10T05:04:32.951Z,1017.78
2023-04-10T05:05:32.922Z,1017.78
2023-04-10T05:06:32.928Z,1017.73
2023-04-10T05:07:32.891Z,1017.73
2023-04-10T05:08:32.912Z,1017.81
2023-04-10T05:09:32.865Z,1017.80
2023-04-10T05:10:32.887Z,1017.76
2023-04-10T05:11:32.870Z,1017.71
2023-04-10T05:12:32.836Z,1017.81
2023-04-10T05:13:32.864Z,1017.81
2023-04-10T05:14:32.842Z,1017.74
2023-04-10T05:15:32.804Z,1017.79
2023-04-10T05:16:32.772Z,1017.79
2023-04-10T05:17:32.851Z,1017.80
2023-04-10T05:18:32.755Z,1017.79
2023-04-10T05:19:32.762Z,1017.79
2023-04-10T05:20:32.719Z,1017.75
2023-04-10T05:21:32.719Z,1017.76
2023-04-10T05:22:32.730Z,1017.79
2023-04-10T05:23:32.688Z,1017.79
2023-04-10T05:24:32.687Z,1017.77
2023-04-10T05:25:32.666Z,1017.77
2023-04-10T05:26:32.683Z,1017.72
2023-04-10T05:27:32.687Z,1017.77
2023-04-10T05:28:32.629Z,1017.77
2023-04-10T05:29:32.610Z,1017.80
2023-04-10T05:30:32.640Z,1017.75
2023-04-10T05:31:32.689Z,1017.78
2023-04-10T05:32:32.637Z,1017.80
2023-04-10T05:33:32.555Z,1017.80
2023-04-10T05:34:32.640Z,1017.83
2023-04-10T05:35:32.557Z,1017.79
2023-04-10T05:36:32.510Z,1017.80
2023-04-10T05:37:32.527Z,1017.80
2023-04-10T05:38:32.477Z,1017.77
2023-04-10T05:39:32.481Z,1017.86
2023-04-10T05:40:32.459Z,1017.80
2023-04-10T05:41:32.458Z,1017.77
2023-04-10T05:42:32.469Z,1017.78
2023-04-10T05:43:32.515Z,1017.80
2023-04-10T05:44:32.403Z,1017.83
2023-04-10T05:45:32.406Z,1017.85
2023-04-10T05:46:32.463Z,1017.91
2023-04-10T05:47:32.455Z,1017.89
2023-04-10T05:48:32.374Z,1017.86
2023-04-10T05:49:32.383Z,1017.88
2023-04-10T05:50:32.325Z,1017.94
2023-04-10T05:51:32.315Z,1017.90
2023-04-10T05:52:32.298Z,1017.91
2023-04-10T05:53:32.350Z,1017.90
2023-04-10T05:54:32.347Z,1017.94
2023-04-10T05:55:32.275Z,1017.91
2023-04-10T05:56:32.265Z,1017.88
2023-04-10T05:57:32.263Z,1017.79
2023-04-10T05:58:32.240Z,1017.80
2023-04-10T05:59:32.220Z,1017.77
2023-04-10T06:00:32.207Z,1017.81
2023-04-10T06:01:32.168Z,1017.84
2023-04-10T06:02:32.513Z,1017.81
2023-04-10T06:03:32.368Z,1017.87
2023-04-10T06:04:32.296Z,1017.86
2023-04-10T06:05:32.121Z,1017.83
2023-04-10T06:06:32.113Z,1017.78
2023-04-10T06:07:32.144Z,1017.81
2023-04-10T06:08:32.137Z,1017.86
2023-04-10T06:09:32.101Z,1017.85
2023-04-10T06:10:32.070Z,1017.85
2023-04-10T06:11:32.043Z,1017.77
2023-04-10T06:12:32.064Z,1017.79
2023-04-10T06:13:32.036Z,1017.82
2023-04-10T06:14:32.068Z,1017.80
2023-04-10T06:15:31.985Z,1017.76
2023-04-10T06:16:32.132Z,1017.78
2023-04-10T06:17:32.036Z,1017.77
2023-04-10T06:18:31.992Z,1017.85
2023-04-10T06:19:31.932Z,1017.74
2023-04-10T06:20:31.980Z,1017.79
2023-04-10T06:21:31.936Z,1017.77
2023-04-10T06:22:31.908Z,1017.69
2023-04-10T06:23:31.910Z,1017.74
2023-04-10T06:24:31.882Z,1017.67
2023-04-10T06:25:31.904Z,1017.70
2023-04-10T06:26:31.885Z,1017.64
2023-04-10T06:27:31.861Z,1017.65
2023-04-10T06:28:31.868Z,1017.62
2023-04-10T06:29:31.842Z,1017.60
2023-04-10T06:30:31.852Z,1017.62
2023-04-10T06:31:32.013Z,1017.59
2023-04-10T06:32:31.835Z,1017.58
2023-04-10T06:33:32.524Z,1017.65
2023-04-10T06:34:31.964Z,1017.68
2023-04-10T06:35:31.819Z,1017.66
2023-04-10T06:36:34.526Z,1017.71
2023-04-10T06:37:31.742Z,1017.71
2023-04-10T06:38:38.835Z,1017.68
2023-04-10T06:39:31.694Z,1017.71
2023-04-10T06:40:31.716Z,1017.72
2023-04-10T06:41:31.745Z,1017.78
2023-04-10T06:42:31.809Z,1017.81
2023-04-10T06:43:31.654Z,1017.74
2023-04-10T06:44:31.627Z,1017.80
2023-04-10T06:45:31.694Z,1017.83
2023-04-10T06:46:31.679Z,1017.91
2023-04-10T06:47:31.608Z,1017.84
2023-04-10T06:48:31.585Z,1017.77
2023-04-10T06:49:31.551Z,1017.79
2023-04-10T06:50:33.367Z,1017.82
2023-04-10T06:51:31.547Z,1017.79
2023-04-10T06:52:31.540Z,1017.78
2023-04-10T06:53:31.490Z,1017.77
2023-04-10T06:54:31.497Z,1017.71
2023-04-10T06:55:31.597Z,1017.68
2023-04-10T06:56:31.482Z,1017.73
2023-04-10T06:57:31.487Z,1017.70
2023-04-10T06:58:31.438Z,1017.65
2023-04-10T06:59:31.442Z,1017.65
2023-04-10T07:00:31.554Z,1017.67
2023-04-10T07:01:31.413Z,1017.68
2023-04-10T07:02:31.497Z,1017.62
2023-04-10T07:03:31.465Z,1017.65
2023-04-10T07:04:31.363Z,1017.63
2023-04-10T07:05:31.355Z,1017.57
2023-04-10T07:06:31.431Z,1017.60
2023-04-10T07:07:31.313Z,1017.58
2023-04-10T07:08:31.314Z,1017.58
2023-04-10T07:09:31.316Z,1017.63
2023-04-10T07:10:31.318Z,1017.54
2023-04-10T07:11:31.333Z,1017.65
2023-04-10T07:12:31.264Z,1017.62
2023-04-10T07:13:31.264Z,1017.63
2023-04-10T07:14:31.263Z,1017.60
2023-04-10T07:15:31.200Z,1017.61
2023-04-10T07:16:31.270Z,1017.59
2023-04-10T07:17:31.309Z,1017.58
2023-04-10T07:18:31.184Z,1017.60
2023-04-10T07:19:31.162Z,1017.55
2023-04-10T07:20:32.112Z,1017.54
2023-04-10T07:21:31.129Z,1017.48
2023-04-10T07:22:31.160Z,1017.52
2023-04-10T07:23:31.153Z,1017.48
2023-04-10T07:24:31.145Z,1017.48
2023-04-10T07:25:31.147Z,1017.39
2023-04-10T07:26:31.107Z,1017.36
2023-04-10T07:27:31.068Z,1017.37
2023-04-10T07:28:31.058Z,1017.33
2023-04-10T07:29:31.065Z,1017.42
2023-04-10T07:30:31.057Z,1017.34
2023-04-10T07:31:31.206Z,1017.35
2023-04-10T07:32:31.103Z,1017.40
2023-04-10T07:33:31.145Z,1017.37
2023-04-10T07:34:30.994Z,1017.40
2023-04-10T07:35:31.705Z,1017.33
2023-04-10T07:36:30.985Z,1017.35
2023-04-10T07:37:30.934Z,1017.26
2023-04-10T07:38:30.950Z,1017.30
2023-04-10T07:39:30.907Z,1017.32
2023-04-10T07:40:30.918Z,1017.31
2023-04-10T07:41:30.866Z,1017.33
2023-04-10T07:42:30.912Z,1017.35
2023-04-10T07:43:30.875Z,1017.38
2023-04-10T07:44:30.862Z,1017.33
2023-04-10T07:45:30.840Z,1017.34
2023-04-10T07:46:30.847Z,1017.25
2023-04-10T07:47:30.870Z,1017.24
2023-04-10T07:48:30.821Z,1017.20
2023-04-10T07:49:30.809Z,1017.18
2023-04-10T07:50:30.834Z,1017.19
2023-04-10T07:51:30.791Z,1017.14
2023-04-10T07:52:30.746Z,1017.15
2023-04-10T07:53:30.759Z,1017.13
2023-04-10T07:54:30.717Z,1017.10
2023-04-10T07:55:30.685Z,1017.06
2023-04-10T07:56:30.726Z,1017.02
2023-04-10T07:57:30.712Z,1017.03
2023-04-10T07:58:30.703Z,1016.99
2023-04-10T07:59:30.672Z,1016.94
2023-04-10T08:00:30.639Z,1017.00
2023-04-10T08:01:30.664Z,1017.01
2023-04-10T08:02:30.826Z,1016.98
2023-04-10T08:03:30.794Z,1016.96
2023-04-10T08:04:30.811Z,1016.98
2023-04-10T08:05:31.494Z,1016.97
2023-04-10T08:06:30.547Z,1016.94
2023-04-10T08:07:30.582Z,1016.94
2023-04-10T08:08:30.573Z,1016.94
2023-04-10T08:09:30.519Z,1017.01
2023-04-10T08:10:31.438Z,1016.94
2023-04-10T08:11:30.510Z,1016.96
2023-04-10T08:12:30.465Z,1016.96
2023-04-10T08:13:30.497Z,1016.92
2023-04-10T08:14:30.475Z,1016.93
2023-04-10T08:15:30.449Z,1016.97
2023-04-10T08:16:30.506Z,1016.90
2023-04-10T08:17:30.480Z,1016.83
2023-04-10T08:18:30.424Z,1016.86
2023-04-10T08:19:30.395Z,1016.76
2023-04-10T08:20:30.364Z,1016.82
2023-04-10T08:21:30.455Z,1016.79
2023-04-10T08:22:30.338Z,1016.79
2023-04-10T08:23:30.622Z,1016.79
2023-04-10T08:24:30.306Z,1016.82
2023-04-10T08:25:31.037Z,1016.73
2023-04-10T08:26:30.322Z,1016.74
2023-04-10T08:27:30.363Z,1016.69
2023-04-10T08:28:30.290Z,1016.71
2023-04-10T08:29:30.276Z,1016.79
2023-04-10T08:30:30.290Z,1016.69
2023-04-10T08:31:30.422Z,1016.66
2023-04-10T08:32:30.233Z,1016.71
2023-04-10T08:33:30.218Z,1016.71
2023-04-10T08:34:30.231Z,1016.64
2023-04-10T08:35:30.183Z,1016.65
2023-04-10T08:36:30.152Z,1016.66
2023-04-10T08:37:30.391Z,1016.69
2023-04-10T08:38:30.141Z,1016.68
2023-04-10T08:39:30.213Z,1016.62
2023-04-10T08:40:30.137Z,1016.66
2023-04-10T08:41:30.418Z,1016.60
2023-04-10T08:42:30.172Z,1016.60
2023-04-10T08:43:31.552Z,1016.53
2023-04-10T08:44:30.122Z,1016.53
2023-04-10T08:45:30.087Z,1016.67
2023-04-10T08:46:30.821Z,1016.56
2023-04-10T08:47:30.126Z,1016.49
2023-04-10T08:48:30.004Z,1016.48
2023-04-10T08:49:30.001Z,1016.49
2023-04-10T08:50:29.980Z,1016.50
2023-04-10T08:51:30.015Z,1016.45
2023-04-10T08:52:29.975Z,1016.44
2023-04-10T08:53:29.989Z,1016.35
2023-04-10T08:54:29.938Z,1016.36
2023-04-10T08:55:29.956Z,1016.28
2023-04-10T08:56:29.894Z,1016.31
2023-04-10T08:57:29.937Z,1016.20
2023-04-10T08:58:29.907Z,1016.23
2023-04-10T08:59:29.908Z,1016.13
2023-04-10T09:00:29.828Z,1016.19
2023-04-10T09:01:29.908Z,1016.13
2023-04-10T09:02:30.081Z,1016.15
2023-04-10T09:03:30.143Z,1016.09
2023-04-10T09:04:29.899Z,1016.05
2023-04-10T09:05:29.783Z,1016.10
2023-04-10T09:06:29.752Z,1016.11
2023-04-10T09:07:29.823Z,1016.02
2023-04-10T09:08:29.747Z,1016.06
2023-04-10T09:09:29.732Z,1015.97
2023-04-10T09:10:29.752Z,1016.02
2023-04-10T09:11:29.727Z,1015.93
2023-04-10T09:12:29.729Z,1015.88
2023-04-10T09:13:29.697Z,1015.90
2023-04-10T09:14:29.651Z,1015.90
2023-04-10T09:15:29.659Z,1015.86
2023-04-10T09:16:29.726Z,1015.93
2023-04-10T09:17:29.714Z,1015.86
2023-04-10T09:18:29.613Z,1015.91
2023-04-10T09:19:29.672Z,1015.79
2023-04-10T09:20:29.661Z,1015.85
2023-04-10T09:21:29.607Z,1015.89
2023-04-10T09:22:29.632Z,1015.83
2023-04-10T09:23:29.537Z,1015.85
2023-04-10T09:24:29.600Z,1015.86
2023-04-10T09:25:29.560Z,1015.87
2023-04-10T09:26:29.596Z,1015.94
2023-04-10T09:27:29.509Z,1015.99
2023-04-10T09:28:29.540Z,1015.95
2023-04-10T09:29:29.501Z,1015.97
2023-04-10T09:30:29.430Z,1015.94
2023-04-10T09:31:29.498Z,1015.96
2023-04-10T09:32:29.489Z,1015.88
2023-04-10T09:33:29.435Z,1015.91
2023-04-10T09:34:29.421Z,1015.95
2023-04-10T09:35:29.412Z,1015.98
2023-04-10T09:36:29.388Z,1015.92
2023-04-10T09:37:29.408Z,1015.95
2023-04-10T09:38:29.363Z,1015.96
2023-04-10T09:39:29.350Z,1015.94
2023-04-10T09:40:29.388Z,1015.96
2023-04-10T09:41:29.303Z,1016.00
2023-04-10T09:42:29.280Z,1015.98
2023-04-10T09:43:29.338Z,1015.94
2023-04-10T09:44:29.309Z,1015.92
2023-04-10T09:45:29.263Z,1015.91
2023-04-10T09:46:29.339Z,1015.88
2023-04-10T09:47:29.270Z,1015.86
2023-04-10T09:48:29.242Z,1015.79
2023-04-10T09:49:29.273Z,1015.83
2023-04-10T09:50:29.214Z,1015.73
2023-04-10T09:51:29.192Z,1015.70
2023-04-10T09:52:29.151Z,1015.75
2023-04-10T09:53:29.204Z,1015.74
2023-04-10T09:54:29.184Z,1015.72
2023-04-10T09:55:29.122Z,1015.73
2023-04-10T09:56:29.098Z,1015.73
2023-04-10T09:57:29.131Z,1015.67
2023-04-10T09:58:29.087Z,1015.70
2023-04-10T09:59:29.082Z,1015.63
2023-04-10T10:00:29.034Z,1015.63
2023-04-10T10:01:29.097Z,1015.62
2023-04-10T10:02:29.248Z,1015.63
2023-04-10T10:03:29.213Z,1015.63
2023-04-10T10:04:29.054Z,1015.65
2023-04-10T10:05:29.007Z,1015.63
2023-04-10T10:06:28.996Z,1015.57
2023-04-10T10:07:28.962Z,1015.52
2023-04-10T10:08:28.934Z,1015.53
2023-04-10T10:09:29.389Z,1015.52
2023-04-10T10:10:28.930Z,1015.44
2023-04-10T10:11:28.908Z,1015.51
2023-04-10T10:12:28.951Z,1015.50
2023-04-10T10:13:28.877Z,1015.50
2023-04-10T10:14:28.886Z,1015.51
2023-04-10T10:15:28.860Z,1015.54
2023-04-10T10:16:28.879Z,1015.44
2023-04-10T10:17:28.871Z,1015.43
2023-04-10T10:18:28.798Z,1015.37
2023-04-10T10:19:28.846Z,1015.44
2023-04-10T10:20:28.879Z,1015.33
2023-04-10T10:21:28.818Z,1015.33
2023-04-10T10:22:28.822Z,1015.28
2023-04-10T10:23:28.776Z,1015.22
2023-04-10T10:24:28.729Z,1015.19
2023-04-10T10:25:28.807Z,1015.21
2023-04-10T10:26:28.720Z,1015.19
2023-04-10T10:27:28.703Z,1015.14
2023-04-10T10:28:28.689Z,1015.14
2023-04-10T10:29:28.718Z,1015.16
2023-04-10T10:30:30.437Z,1015.17
2023-04-10T10:31:28.702Z,1015.04
2023-04-10T10:32:28.661Z,1014.97
2023-04-10T10:33:28.671Z,1015.04
2023-04-10T10:34:28.680Z,1014.92
2023-04-10T10:35:29.820Z,1014.96
2023-04-10T10:36:28.604Z,1014.79
2023-04-10T10:37:28.607Z,1014.84
2023-04-10T10:38:28.574Z,1014.81
2023-04-10T10:39:28.578Z,1014.83
2023-04-10T10:40:28.622Z,1014.78
2023-04-10T10:41:28.524Z,1014.68
2023-04-10T10:42:28.514Z,1014.75
2023-04-10T10:43:28.532Z,1014.66
2023-04-10T10:44:28.496Z,1014.67
2023-04-10T10:45:28.556Z,1014.69
2023-04-10T10:46:28.498Z,1014.64
2023-04-10T10:47:28.542Z,1014.60
2023-04-10T10:48:28.414Z,1014.54
2023-04-10T10:49:28.411Z,1014.56
2023-04-10T10:50:28.389Z,1014.42
2023-04-10T10:51:28.445Z,1014.38
2023-04-10T10:52:28.393Z,1014.39
2023-04-10T10:53:28.359Z,1014.35
2023-04-10T10:54:28.349Z,1014.31
2023-04-10T10:55:28.351Z,1014.25
2023-04-10T10:56:28.338Z,1014.26
2023-04-10T10:57:28.333Z,1014.30
2023-04-10T10:58:28.400Z,1014.23
2023-04-10T10:59:28.302Z,1014.25
2023-04-10T11:00:28.280Z,1014.18
2023-04-10T11:01:28.346Z,1014.19
2023-04-10T11:02:28.358Z,1014.21
2023-04-10T11:03:28.422Z,1014.10
2023-04-10T11:04:28.252Z,1014.08
2023-04-10T11:05:28.205Z,1014.13
2023-04-10T11:06:28.203Z,1014.11
2023-04-10T11:07:28.239Z,1014.02
2023-04-10T11:08:28.194Z,1014.05
2023-04-10T11:09:28.143Z,1013.95
2023-04-10T11:10:28.159Z,1013.98
2023-04-10T11:11:28.142Z,1013.95
2023-04-10T11:12:28.159Z,1013.98
2023-04-10T11:13:28.113Z,1013.94
2023-04-10T11:14:28.100Z,1013.91
2023-04-10T11:15:28.070Z,1013.86
2023-04-10T11:16:28.202Z,1013.85
2023-04-10T11:17:28.112Z,1013.92
2023-04-10T11:18:28.024Z,1013.93
2023-04-10T11:19:28.323Z,1013.84
2023-04-10T11:20:28.071Z,1013.80
2023-04-10T11:21:28.091Z,1013.77
2023-04-10T11:22:28.098Z,1013.82
2023-04-10T11:23:28.034Z,1013.80
2023-04-10T11:24:27.979Z,1013.85
2023-04-10T11:25:27.942Z,1013.77
2023-04-10T11:26:27.950Z,1013.79
2023-04-10T11:27:27.913Z,1013.75
2023-04-10T11:28:27.912Z,1013.73
2023-04-10T11:29:27.922Z,1013.78
2023-04-10T11:30:27.872Z,1013.61
2023-04-10T11:31:27.948Z,1013.63
2023-04-10T11:32:27.882Z,1013.64
2023-04-10T11:33:27.867Z,1013.57
2023-04-10T11:34:27.841Z,1013.54
2023-04-10T11:35:27.949Z,1013.55
2023-04-10T11:36:27.837Z,1013.59
2023-04-10T11:37:27.803Z,1013.51
2023-04-10T11:38:27.756Z,1013.51
2023-04-10T11:39:27.805Z,1013.57
2023-04-10T11:40:27.757Z,1013.50
2023-04-10T11:41:27.834Z,1013.57
2023-04-10T11:42:27.702Z,1013.45
2023-04-10T11:43:27.760Z,1013.47
2023-04-10T11:44:27.706Z,1013.48
2023-04-10T11:45:27.677Z,1013.38
2023-04-10T11:46:27.805Z,1013.45
2023-04-10T11:47:27.651Z,1013.47
2023-04-10T11:48:27.668Z,1013.48
2023-04-10T11:49:27.632Z,1013.44
2023-04-10T11:50:27.640Z,1013.40
2023-04-10T11:51:27.643Z,1013.34
2023-04-10T11:52:27.594Z,1013.41
2023-04-10T11:53:27.586Z,1013.37
2023-04-10T11:54:27.615Z,1013.31
2023-04-10T11:55:27.591Z,1013.25
2023-04-10T11:56:27.531Z,1013.24
2023-04-10T11:57:27.575Z,1013.29
2023-04-10T11:58:27.608Z,1013.22
2023-04-10T11:59:27.518Z,1013.25
2023-04-10T12:00:27.483Z,1013.18
2023-04-10T12:01:27.629Z,1013.16
2023-04-10T12:02:27.584Z,1013.26
2023-04-10T12:03:27.578Z,1013.10
2023-04-10T12:04:27.533Z,1013.09
2023-04-10T12:05:27.418Z,1013.13